Time;durP1;ratioP1;P1;durP2;ratioP2;P2;SDS_P1;SDS_P2;PMS_P1;PMS_P2;Temp;Humidity;BMP_temperature;BMP_pressure;BME280_temperature;BME280_humidity;BME280_pressure;Samples;Min_cycle;Max_cycle;Signal;HPM_P1;HPM_P2
2024/02/19 00:01:49;;;;;;;;;89.33;64.00;;;;;1.76;100.00;100633.84;6304328;20;3651371;-51
2024/02/19 00:04:19;;;;;;;;;89.67;68.00;;;;;1.10;100.00;100637.94;6304747;20;3636719;-53
2024/02/19 00:06:48;;;;;;;;;72.00;57.00;;;;;1.44;100.00;100636.81;6304758;20;2866961;-53
2024/02/19 00:09:19;;;;;;;;;85.33;63.33;;;;;1.36;100.00;100639.53;6276579;20;3648157;-54
2024/02/19 00:11:49;;;;;;;;;88.67;64.00;;;;;1.52;100.00;100635.84;6307615;20;3655468;-52
2024/02/19 00:14:18;;;;;;;;;82.67;62.67;;;;;1.32;100.00;100635.16;6305481;20;3654408;-52
2024/02/19 00:16:48;;;;;;;;;86.00;64.00;;;;;1.68;100.00;100627.75;6307628;20;3656545;-53
2024/02/19 00:19:18;;;;;;;;;84.00;65.00;;;;;1.41;100.00;100632.41;6306246;20;2872262;-53
2024/02/19 00:21:47;;;;;;;;;89.00;68.33;;;;;1.42;100.00;100634.19;6306050;20;3639854;-53
2024/02/19 00:24:17;;;;;;;;;95.33;68.00;;;;;1.06;100.00;100630.94;6305524;20;3660693;-53
2024/02/19 00:26:47;;;;;;;;;92.67;69.33;;;;;0.69;100.00;100624.16;6307785;20;3635680;-50
2024/02/19 00:29:17;;;;;;;;;91.33;65.67;;;;;1.00;100.00;100620.44;6305596;20;3648199;-51
2024/02/19 00:31:47;;;;;;;;;89.33;65.33;;;;;1.22;100.00;100610.53;6307882;20;3654438;-50
2024/02/19 00:34:17;;;;;;;;;92.00;66.00;;;;;1.26;100.00;100612.28;6304799;20;3651384;-52
2024/02/19 00:36:47;;;;;;;;;85.00;64.67;;;;;1.67;100.00;100612.78;6307134;20;3644024;-51
2024/02/19 00:39:17;;;;;;;;;89.33;65.33;;;;;1.48;100.00;100610.31;6305457;20;3654526;-51
2024/02/19 00:41:46;;;;;;;;;89.33;68.00;;;;;1.08;100.00;100608.03;6305416;20;3648175;-52
2024/02/19 00:44:17;;;;;;;;;100.67;70.33;;;;;1.06;100.00;100604.50;6304497;20;3672128;-51
2024/02/19 00:46:46;;;;;;;;;81.67;63.33;;;;;1.34;100.00;100604.25;6271293;20;2873244;-50
2024/02/19 00:49:16;;;;;;;;;96.00;68.67;;;;;1.21;100.00;100606.16;6302463;20;3649174;-51
2024/02/19 00:51:45;;;;;;;;;88.67;69.00;;;;;1.53;100.00;100599.69;6306151;20;2867953;-52
2024/02/19 00:54:15;;;;;;;;;85.67;63.00;;;;;1.44;100.00;100605.06;6302294;20;3661910;-51
2024/02/19 00:56:45;;;;;;;;;91.00;69.33;;;;;1.71;100.00;100603.88;6302682;20;3653367;-49
2024/02/19 00:59:14;;;;;;;;;90.00;65.33;;;;;1.76;100.00;100607.38;6304625;20;3633687;-50
2024/02/19 01:01:44;;;;;;;;;85.33;63.33;;;;;1.37;100.00;100593.66;6301345;20;3652471;-49
2024/02/19 01:04:14;;;;;;;;;84.00;62.00;;;;;1.41;100.00;100592.72;6304147;20;3656687;-54
2024/02/19 01:06:43;;;;;;;;;85.67;63.00;;;;;1.69;100.00;100597.75;6301920;20;3653432;-52
2024/02/19 01:09:13;;;;;;;;;83.67;64.00;;;;;1.63;100.00;100589.88;6305290;20;3639886;-51
2024/02/19 01:11:43;;;;;;;;;81.33;61.00;;;;;1.94;100.00;100591.28;6306121;20;3641944;-52
2024/02/19 01:14:13;;;;;;;;;82.67;60.33;;;;;1.65;100.00;100577.50;6304940;20;3650352;-53
2024/02/19 01:16:43;;;;;;;;;82.33;57.00;;;;;1.25;100.00;100577.91;6305061;20;3658639;-53
2024/02/19 01:19:12;;;;;;;;;80.33;60.33;;;;;1.32;100.00;100571.66;6302397;20;3646149;-51
2024/02/19 01:21:42;;;;;;;;;85.67;62.00;;;;;1.65;100.00;100566.91;6304420;20;3656736;-54
2024/02/19 01:24:12;;;;;;;;;79.00;59.00;;;;;1.80;100.00;100563.22;6303420;20;3650296;-53
2024/02/19 01:26:42;;;;;;;;;79.50;60.50;;;;;1.67;100.00;100570.44;6303132;20;2879594;-53
2024/02/19 01:29:11;;;;;;;;;86.33;62.33;;;;;1.66;100.00;100561.63;6302680;20;3651323;-52
2024/02/19 01:31:41;;;;;;;;;81.33;61.00;;;;;1.45;100.00;100548.59;6304503;20;2890975;-53
2024/02/19 01:34:11;;;;;;;;;84.67;61.33;;;;;1.17;100.00;100545.34;6302729;20;3659681;-54
2024/02/19 01:36:40;;;;;;;;;86.00;62.00;;;;;0.70;100.00;100536.06;6270627;20;2904603;-50
2024/02/19 01:39:12;;;;;;;;;98.33;72.00;;;;;0.39;100.00;100533.63;6301713;20;3654441;-51
2024/02/19 01:41:41;;;;;;;;;125.67;92.33;;;;;0.33;100.00;100531.91;6304886;20;3695072;-49
2024/02/19 01:44:11;;;;;;;;;100.67;64.33;;;;;0.76;100.00;100520.13;6270671;20;3690047;-49
2024/02/19 01:46:43;;;;;;;;;92.33;63.67;;;;;0.68;100.00;100522.84;6268898;20;3655545;-50
2024/02/19 01:49:13;;;;;;;;;91.00;63.33;;;;;1.35;100.00;100524.00;6268801;20;3663856;-51
2024/02/19 01:51:43;;;;;;;;;105.33;69.67;;;;;1.41;100.00;100518.66;6298070;20;3685735;-52
2024/02/19 01:54:14;;;;;;;;;92.00;66.67;;;;;1.42;100.00;100533.66;6267786;20;3658656;-50
2024/02/19 01:56:44;;;;;;;;;86.00;64.00;;;;;1.19;100.00;100530.34;6303003;20;3647208;-51
2024/02/19 01:59:17;;;;;;;;;73.00;53.67;;;;;1.44;100.00;100531.84;6302696;20;2881636;-52
2024/02/19 02:01:47;;;;;;;;;74.67;57.00;;;;;1.04;100.00;100534.00;6299950;20;2882581;-52
2024/02/19 02:04:18;;;;;;;;;80.67;60.33;;;;;1.07;100.00;100526.91;6300758;20;3636702;-52
2024/02/19 02:06:48;;;;;;;;;90.33;65.33;;;;;1.38;100.00;100526.63;6300041;20;3640931;-52
2024/02/19 02:09:18;;;;;;;;;102.33;74.00;;;;;1.19;100.00;100531.22;6301351;20;3689932;-52
2024/02/19 02:11:48;;;;;;;;;86.67;59.33;;;;;0.96;100.00;100523.50;6277072;20;3662772;-53
2024/02/19 02:14:18;;;;;;;;;84.67;60.67;;;;;1.15;100.00;100525.97;6307025;20;3659605;-53
2024/02/19 02:16:47;;;;;;;;;80.33;58.00;;;;;0.73;100.00;100531.63;6308084;20;2900347;-51
2024/02/19 02:19:17;;;;;;;;;83.33;61.33;;;;;0.99;100.00;100522.59;6307376;20;2882692;-54
2024/02/19 02:21:47;;;;;;;;;81.67;63.33;;;;;1.09;100.00;100525.13;6309299;20;2886836;-48
2024/02/19 02:24:16;;;;;;;;;76.67;57.67;;;;;1.19;100.00;100525.94;6307572;20;2894088;-53
2024/02/19 02:26:46;;;;;;;;;77.67;57.33;;;;;0.80;100.00;100527.16;6310077;20;3654491;-54
2024/02/19 02:29:15;;;;;;;;;72.67;53.67;;;;;0.97;100.00;100525.25;6309212;20;2885028;-53
2024/02/19 02:31:45;;;;;;;;;74.33;55.33;;;;;1.02;100.00;100528.72;6308959;20;2879451;-53
2024/02/19 02:34:15;;;;;;;;;78.33;61.00;;;;;1.25;100.00;100530.28;6308142;20;2877437;-53
2024/02/19 02:36:44;;;;;;;;;81.00;59.00;;;;;1.18;100.00;100523.28;6307675;20;3646144;-53
2024/02/19 02:39:14;;;;;;;;;81.67;56.33;;;;;1.03;100.00;100522.56;6307908;20;3652378;-49
2024/02/19 02:41:44;;;;;;;;;79.33;57.00;;;;;1.30;100.00;100525.81;6307309;20;3638886;-53
2024/02/19 02:44:16;;;;;;;;;72.67;57.67;;;;;1.07;100.00;100516.34;6304650;20;2881648;-51
2024/02/19 02:46:45;;;;;;;;;83.33;59.67;;;;;1.35;100.00;100512.56;6306688;20;3658552;-49
2024/02/19 02:49:15;;;;;;;;;74.33;59.67;;;;;1.00;100.00;100509.38;6305178;20;2876505;-54
2024/02/19 02:51:45;;;;;;;;;85.33;59.67;;;;;0.83;100.00;100506.00;6308817;20;3647147;-52
2024/02/19 02:54:13;;;;;;;;;77.00;59.00;;;;;1.19;100.00;100514.50;6305293;20;2875292;-49
2024/02/19 02:56:43;;;;;;;;;77.00;55.67;;;;;1.03;100.00;100503.19;6273933;20;3637893;-51
2024/02/19 02:59:13;;;;;;;;;82.00;62.00;;;;;1.09;100.00;100508.41;6309348;20;2885891;-51
2024/02/19 03:01:42;;;;;;;;;79.00;54.50;;;;;0.67;100.00;100509.66;6306133;20;2873232;-52
2024/02/19 03:04:11;;;;;;;;;83.00;63.00;;;;;0.87;100.00;100508.59;6276052;20;2835667;-52
2024/02/19 03:06:40;;;;;;;;;75.67;57.00;;;;;1.22;100.00;100506.53;6275762;20;2882705;-50
2024/02/19 03:09:10;;;;;;;;;85.00;63.33;;;;;0.61;100.00;100497.38;6308379;20;3658610;-50
2024/02/19 03:11:41;;;;;;;;;93.33;69.67;;;;;0.86;100.00;100496.25;6307661;20;3658672;-51
2024/02/19 03:14:13;;;;;;;;;78.33;62.33;;;;;1.05;100.00;100502.28;6305313;20;2876348;-50
2024/02/19 03:16:43;;;;;;;;;89.67;69.00;;;;;1.15;100.00;100502.16;6306503;20;2879608;-52
2024/02/19 03:19:13;;;;;;;;;93.67;67.33;;;;;1.13;100.00;100503.94;6306024;20;3650378;-50
2024/02/19 03:21:43;;;;;;;;;84.33;63.00;;;;;1.13;100.00;100509.25;6305174;20;3651348;-51
2024/02/19 03:24:14;;;;;;;;;86.00;63.00;;;;;1.30;100.00;100508.19;6303002;20;3659717;-53
2024/02/19 03:26:42;;;;;;;;;67.33;50.33;;;;;1.20;100.00;100508.28;6303801;20;2872323;-52
2024/02/19 03:29:13;;;;;;;;;85.00;63.00;;;;;0.93;100.00;100491.81;6306970;20;3586773;-52
2024/02/19 03:31:44;;;;;;;;;84.33;62.33;;;;;1.07;100.00;100496.97;6303431;20;3656699;-50
2024/02/19 03:34:14;;;;;;;;;85.33;59.00;;;;;1.05;100.00;100496.09;6305980;20;3655498;-51
2024/02/19 03:36:50;;;;;;;;;80.67;59.67;;;;;0.69;100.00;100481.47;6304313;20;3643054;-48
2024/02/19 03:39:19;;;;;;;;;78.00;61.00;;;;;0.59;100.00;100483.28;6305771;20;3633685;-52
2024/02/19 03:41:49;;;;;;;;;85.00;62.67;;;;;0.45;100.00;100483.41;6303779;20;2891034;-51
2024/02/19 03:44:18;;;;;;;;;83.33;64.67;;;;;0.20;100.00;100475.63;6305076;20;2884786;-52
2024/02/19 03:46:48;;;;;;;;;80.00;58.33;;;;;0.48;100.00;100466.66;6305017;20;3640967;-51
2024/02/19 03:49:17;;;;;;;;;79.33;61.33;;;;;0.34;100.00;100465.00;6307974;20;2878394;-50
2024/02/19 03:51:45;;;;;;;;;68.50;58.50;;;;;0.89;100.00;100463.63;6302282;20;2500292;-49
2024/02/19 03:54:13;;;;;;;;;74.00;59.00;;;;;1.38;100.00;100471.06;6271597;20;2500425;-50
2024/02/19 03:56:43;;;;;;;;;78.67;59.67;;;;;1.37;100.00;100474.63;6272077;20;3651327;-51
2024/02/19 03:59:12;;;;;;;;;77.00;61.00;;;;;1.42;100.00;100480.72;6306860;20;2870207;-52
2024/02/19 04:01:40;;;;;;;;;67.00;53.00;;;;;1.31;100.00;100483.47;6270822;20;2495180;-53
2024/02/19 04:04:09;;;;;;;;;67.00;52.50;;;;;1.37;100.00;100479.00;6272682;20;2875305;-48
2024/02/19 04:06:39;;;;;;;;;81.67;58.00;;;;;0.95;100.00;100479.47;6269977;20;2885773;-51
2024/02/19 04:09:08;;;;;;;;;79.33;57.67;;;;;1.19;100.00;100467.75;6302780;20;2878501;-51
2024/02/19 04:11:38;;;;;;;;;78.67;64.67;;;;;0.53;100.00;100468.38;6303018;20;2873209;-53
2024/02/19 04:14:08;;;;;;;;;86.33;61.00;;;;;1.23;100.00;100458.00;6301050;20;3664861;-53
2024/02/19 04:16:36;;;;;;;;;77.50;57.50;;;;;0.64;100.00;100455.94;6304486;20;2881964;-49
2024/02/19 04:19:04;;;;;;;;;21.00;0.00;;;;;1.46;100.00;100463.91;6272276;20;2800740;-49
2024/02/19 04:21:34;;;;;;;;;73.33;55.33;;;;;1.46;100.00;100458.63;6273315;20;2892043;-53
2024/02/19 04:24:04;;;;;;;;;84.00;62.00;;;;;1.17;100.00;100452.78;6301135;20;3648226;-53
2024/02/19 04:26:33;;;;;;;;;85.67;62.67;;;;;1.02;100.00;100435.31;6299814;20;3651339;-50
2024/02/19 04:29:03;;;;;;;;;82.67;62.67;;;;;0.96;100.00;100428.31;6301063;20;3649262;-50
2024/02/19 04:31:33;;;;;;;;;79.67;59.67;;;;;1.37;100.00;100436.66;6301529;20;2882718;-49
2024/02/19 04:34:03;;;;;;;;;79.33;59.67;;;;;1.49;100.00;100433.88;6300078;20;3633745;-52
2024/02/19 04:36:33;;;;;;;;;83.00;61.00;;;;;1.92;100.00;100439.50;6303913;20;3631557;-48
2024/02/19 04:39:03;;;;;;;;;88.33;69.00;;;;;1.97;100.00;100442.97;6304907;20;3631498;-54
2024/02/19 04:41:32;;;;;;;;;89.00;64.33;;;;;1.68;100.00;100445.97;6300033;20;3661765;-48
2024/02/19 04:44:02;;;;;;;;;81.33;60.33;;;;;1.84;100.00;100440.47;6301291;20;2891083;-53
2024/02/19 04:46:32;;;;;;;;;71.00;56.00;;;;;1.54;100.00;100432.94;6302128;20;2595054;-52
2024/02/19 04:49:02;;;;;;;;;74.00;57.00;;;;;0.91;100.00;100429.25;6271329;20;2887915;-53
2024/02/19 04:51:32;;;;;;;;;76.67;59.67;;;;;1.57;100.00;100442.59;6302177;20;2876404;-54
2024/02/19 04:54:03;;;;;;;;;63.67;44.67;;;;;1.76;100.00;100443.22;6303618;20;2877425;-54
2024/02/19 04:56:32;;;;;;;;;84.00;61.67;;;;;1.48;100.00;100459.47;6299465;20;3649280;-50
2024/02/19 04:59:02;;;;;;;;;78.00;59.67;;;;;1.75;100.00;100460.91;6300238;20;2884699;-50
2024/02/19 05:01:32;;;;;;;;;79.67;60.67;;;;;1.50;100.00;100456.78;6301185;20;2885720;-52
2024/02/19 05:04:02;;;;;;;;;71.00;52.33;;;;;2.01;100.00;100458.81;6301438;20;3634655;-53
2024/02/19 05:06:32;;;;;;;;;79.00;60.67;;;;;2.07;100.00;100459.56;6302625;20;3646148;-51
2024/02/19 05:09:02;;;;;;;;;72.33;57.67;;;;;1.88;100.00;100453.66;6305586;20;2877337;-52
2024/02/19 05:11:31;;;;;;;;;87.33;65.00;;;;;1.29;100.00;100442.06;6302735;20;3662855;-49
2024/02/19 05:14:00;;;;;;;;;86.50;63.50;;;;;1.53;100.00;100439.13;6300605;20;2896206;-50
2024/02/19 05:16:30;;;;;;;;;88.33;63.33;;;;;1.84;100.00;100451.94;6274842;20;3661782;-53
2024/02/19 05:19:00;;;;;;;;;85.67;63.00;;;;;2.16;100.00;100463.88;6303883;20;3656509;-53
2024/02/19 05:21:30;;;;;;;;;81.33;62.00;;;;;2.07;100.00;100459.56;6273638;20;3640866;-54
2024/02/19 05:24:00;;;;;;;;;80.67;62.00;;;;;2.13;100.00;100454.22;6305394;20;3640978;-54
2024/02/19 05:26:30;;;;;;;;;86.33;63.00;;;;;2.31;100.00;100463.63;6302619;20;3650260;-52
2024/02/19 05:28:59;;;;;;;;;83.33;64.00;;;;;2.18;100.00;100462.06;6304754;20;3626285;-52
2024/02/19 05:31:35;;;;;;;;;83.33;64.33;;;;;2.18;100.00;100451.47;6303196;20;3658595;-52
2024/02/19 05:34:06;;;;;;;;;72.67;59.00;;;;;1.72;100.00;100452.13;6301322;20;2868161;-52
2024/02/19 05:36:36;;;;;;;;;76.00;56.33;;;;;1.38;100.00;100444.59;6300549;20;3640298;-51
2024/02/19 05:39:10;;;;;;;;;76.00;59.33;;;;;1.51;100.00;100437.41;6302972;20;3638968;-52
2024/02/19 05:41:40;;;;;;;;;77.33;56.00;;;;;1.28;100.00;100424.44;6305334;20;3658670;-51
2024/02/19 05:44:10;;;;;;;;;69.00;54.00;;;;;1.41;100.00;100426.03;6302773;20;2877408;-52
2024/02/19 05:46:42;;;;;;;;;79.33;60.00;;;;;1.60;100.00;100434.63;6279066;20;3652699;-53
2024/02/19 05:49:12;;;;;;;;;76.00;59.67;;;;;1.76;100.00;100422.06;6307024;20;2882592;-54
2024/02/19 05:51:41;;;;;;;;;74.00;59.00;;;;;1.70;100.00;100415.06;6310636;20;2872136;-51
2024/02/19 05:54:10;;;;;;;;;75.33;57.67;;;;;1.46;100.00;100411.00;6276950;20;2879441;-54
2024/02/19 05:56:41;;;;;;;;;77.33;58.00;;;;;1.63;100.00;100420.47;6309803;20;3636804;-53
2024/02/19 05:59:11;;;;;;;;;79.67;62.00;;;;;1.88;100.00;100411.31;6309501;20;3632643;-54
2024/02/19 06:01:40;;;;;;;;;82.33;61.00;;;;;1.96;100.00;100414.72;6308195;20;2894108;-54
2024/02/19 06:04:10;;;;;;;;;85.33;62.33;;;;;1.93;100.00;100409.47;6310259;20;3661760;-55
2024/02/19 06:06:40;;;;;;;;;84.00;66.67;;;;;2.34;100.00;100410.63;6309042;20;2875582;-53
2024/02/19 06:09:09;;;;;;;;;83.67;65.33;;;;;2.47;100.00;100421.00;6307943;20;3636764;-54
2024/02/19 06:11:45;;;;;;;;;97.67;69.67;;;;;2.82;100.00;100417.75;6310502;20;3653463;-53
2024/02/19 06:14:15;;;;;;;;;88.67;64.67;;;;;2.50;100.00;100423.59;6274158;20;3642128;-52
2024/02/19 06:16:44;;;;;;;;;85.00;62.67;;;;;2.66;100.00;100427.75;6310111;20;3662761;-53
2024/02/19 06:19:15;;;;;;;;;84.67;62.67;;;;;2.43;100.00;100425.47;6275602;20;3645186;-52
2024/02/19 06:21:45;;;;;;;;;95.00;71.00;;;;;2.04;100.00;100424.31;6309806;20;3664261;-52
2024/02/19 06:24:14;;;;;;;;;70.00;55.00;;;;;2.26;100.00;100428.38;6308586;20;2886791;-53
2024/02/19 06:26:44;;;;;;;;;81.67;58.33;;;;;2.25;100.00;100428.41;6308113;20;3649340;-50
2024/02/19 06:29:13;;;;;;;;;71.67;56.67;;;;;2.11;100.00;100423.34;6306191;20;2874342;-52
2024/02/19 06:31:46;;;;;;;;;77.67;55.00;;;;;2.31;100.00;100421.22;6309750;20;3637856;-50
2024/02/19 06:34:15;;;;;;;;;79.67;61.67;;;;;2.62;100.00;100426.91;6305084;20;3627414;-52
2024/02/19 06:36:45;;;;;;;;;75.67;58.33;;;;;2.41;100.00;100435.22;6307114;20;3628410;-53
2024/02/19 06:39:15;;;;;;;;;92.33;68.00;;;;;1.78;100.00;100430.84;6307139;20;3653418;-52
2024/02/19 06:41:45;;;;;;;;;99.00;78.00;;;;;2.30;100.00;100419.50;6310425;20;3681564;-52
2024/02/19 06:44:15;;;;;;;;;130.33;104.33;;;;;2.91;100.00;100433.47;6277339;20;3710719;-53
2024/02/19 06:46:44;;;;;;;;;72.33;51.00;;;;;2.89;100.00;100451.19;6276077;20;2898355;-50
2024/02/19 06:49:13;;;;;;;;;80.50;64.50;;;;;2.52;100.00;100437.69;6307021;20;2878410;-49
2024/02/19 06:51:43;;;;;;;;;82.67;62.00;;;;;1.84;100.00;100428.13;6273570;20;3642946;-50
2024/02/19 06:54:12;;;;;;;;;91.67;70.00;;;;;2.11;100.00;100415.41;6308009;20;3658578;-52
2024/02/19 06:56:42;;;;;;;;;88.67;63.33;;;;;2.05;100.00;100412.81;6307877;20;3654495;-50
2024/02/19 06:59:12;;;;;;;;;81.00;61.00;;;;;1.78;100.00;100411.47;6307787;20;3652326;-52
2024/02/19 07:01:41;;;;;;;;;80.33;61.00;;;;;1.74;100.00;100406.22;6306793;20;2880653;-56
2024/02/19 07:04:11;;;;;;;;;87.67;67.33;;;;;2.41;100.00;100404.28;6307991;20;3642398;-56
2024/02/19 07:06:41;;;;;;;;;74.67;58.67;;;;;3.32;100.00;100418.56;6306781;20;2878469;-46
2024/02/19 07:09:11;;;;;;;;;80.33;56.00;;;;;2.99;100.00;100417.41;6307718;20;3645049;-45
2024/02/19 07:11:40;;;;;;;;;79.33;60.00;;;;;3.28;100.00;100423.03;6308025;20;3643976;-44
2024/02/19 07:14:10;;;;;;;;;75.33;57.33;;;;;2.75;100.00;100422.28;6306315;20;3640874;-46
2024/02/19 07:16:39;;;;;;;;;72.00;57.00;;;;;2.55;100.00;100419.94;6305805;20;2872208;-44
2024/02/19 07:19:08;;;;;;;;;90.67;66.33;;;;;2.34;100.00;100415.00;6274282;20;3651294;-46
2024/02/19 07:21:38;;;;;;;;;71.33;57.00;;;;;2.40;100.00;100421.09;6307592;20;2882651;-45
2024/02/19 07:24:07;;;;;;;;;79.00;60.33;;;;;2.68;100.00;100425.91;6305534;20;2883699;-44
2024/02/19 07:26:37;;;;;;;;;105.00;95.00;;;;;2.86;100.00;100412.34;6308542;20;3671105;-44
2024/02/19 07:29:07;;;;;;;;;75.67;60.00;;;;;3.33;100.00;100414.13;6271668;20;2876522;-44
2024/02/19 07:31:36;;;;;;;;;100.00;92.00;;;;;2.97;100.00;100406.81;6305244;20;3650315;-45
2024/02/19 07:34:07;;;;;;;;;96.00;74.67;;;;;2.62;100.00;100413.66;6305404;20;3658703;-44
2024/02/19 07:36:38;;;;;;;;;89.33;65.00;;;;;2.52;100.00;100414.72;6307749;20;3637878;-44
2024/02/19 07:39:07;;;;;;;;;86.33;62.33;;;;;2.97;100.00;100405.97;6306143;20;3658646;-44
2024/02/19 07:41:37;;;;;;;;;83.00;65.00;;;;;2.89;100.00;100402.59;6306177;20;2885821;-45
2024/02/19 07:44:06;;;;;;;;;98.67;75.67;;;;;2.84;100.00;100406.22;6306806;20;3671123;-44
2024/02/19 07:46:36;;;;;;;;;97.67;78.33;;;;;3.54;100.00;100400.41;6271809;20;3662917;-44
2024/02/19 07:49:06;;;;;;;;;87.00;64.67;;;;;2.99;100.00;100404.16;6308461;20;3648206;-46
2024/02/19 07:51:36;;;;;;;;;83.00;63.00;;;;;2.74;100.00;100394.03;6307839;20;3636760;-45
2024/02/19 07:54:05;;;;;;;;;92.33;67.67;;;;;3.29;100.00;100403.56;6306886;20;3661763;-44
2024/02/19 07:56:35;;;;;;;;;95.33;79.67;;;;;3.44;100.00;100399.69;6307573;20;3671147;-44
2024/02/19 07:59:06;;;;;;;;;96.33;75.33;;;;;3.32;100.00;100404.38;6271231;20;3674240;-45
2024/02/19 08:01:36;;;;;;;;;97.00;74.67;;;;;3.46;100.00;100402.34;6274275;20;3662808;-44
2024/02/19 08:04:06;;;;;;;;;86.50;63.50;;;;;3.69;100.00;100400.06;6269936;20;3573235;-45
2024/02/19 08:06:36;;;;;;;;;96.67;75.33;;;;;3.61;100.00;100403.81;6306497;20;3662824;-43
2024/02/19 08:09:06;;;;;;;;;90.33;68.00;;;;;4.01;100.00;100406.44;6273164;20;3658664;-44
2024/02/19 08:11:37;;;;;;;;;102.00;79.00;;;;;3.96;100.00;100408.31;6305457;20;3702416;-44
2024/02/19 08:14:06;;;;;;;;;91.33;66.67;;;;;4.13;100.00;100408.81;6275819;20;3663847;-46
2024/02/19 08:16:36;;;;;;;;;91.67;67.00;;;;;4.03;100.00;100386.03;6309488;20;3673292;-43
2024/02/19 08:19:06;;;;;;;;;88.33;65.67;;;;;3.21;100.00;100392.25;6307812;20;3649322;-44
2024/02/19 08:21:35;;;;;;;;;86.33;64.00;;;;;3.33;100.00;100382.28;6310626;20;3653442;-44
2024/02/19 08:24:04;;;;;;;;;89.00;67.00;;;;;3.53;100.00;100380.06;6306158;20;3649415;-45
2024/02/19 08:26:34;;;;;;;;;97.67;80.00;;;;;3.94;100.00;100380.91;6275703;20;3681506;-43
2024/02/19 08:29:05;;;;;;;;;88.33;66.00;;;;;4.13;100.00;100387.56;6276923;20;3639849;-44
2024/02/19 08:31:35;;;;;;;;;92.67;71.67;;;;;5.22;100.00;100375.84;6307042;20;3657631;-45
2024/02/19 08:34:05;;;;;;;;;88.33;66.33;;;;;4.30;100.00;100378.28;6304820;20;3655490;-45
2024/02/19 08:36:37;;;;;;;;;87.33;65.00;;;;;3.91;100.00;100373.88;6304776;20;3654545;-44
2024/02/19 08:39:07;;;;;;;;;100.33;80.67;;;;;4.06;100.00;100377.97;6308334;20;3687864;-44
2024/02/19 08:41:36;;;;;;;;;77.33;58.67;;;;;4.46;100.00;100370.81;6276529;20;3633639;-45
2024/02/19 08:44:06;;;;;;;;;89.33;66.33;;;;;4.38;100.00;100371.88;6307885;20;3676357;-45
2024/02/19 08:46:35;;;;;;;;;87.33;66.00;;;;;4.93;100.00;100374.00;6275431;20;3643030;-43
2024/02/19 08:49:08;;;;;;;;;81.33;62.00;;;;;4.98;100.00;100372.97;6306873;20;3640905;-44
2024/02/19 08:51:38;;;;;;;;;83.00;61.00;;;;;4.70;100.00;100371.94;6308183;20;3647148;-43
2024/02/19 08:54:08;;;;;;;;;82.67;62.00;;;;;4.43;100.00;100371.75;6305022;20;3626349;-46
2024/02/19 08:56:38;;;;;;;;;85.67;65.33;;;;;5.04;100.00;100372.78;6307051;20;3636790;-44
2024/02/19 08:59:06;;;;;;;;;71.00;56.50;;;;;5.38;100.00;100371.81;6301177;20;2492437;-43
2024/02/19 09:01:35;;;;;;;;;83.00;62.00;;;;;5.58;100.00;100373.91;6276226;20;3643008;-44
2024/02/19 09:04:05;;;;;;;;;87.67;66.00;;;;;5.63;100.00;100381.72;6304556;20;3654475;-45
2024/02/19 09:06:35;;;;;;;;;80.00;61.67;;;;;5.47;100.00;100379.53;6307014;20;3630530;-44
2024/02/19 09:09:05;;;;;;;;;83.00;62.33;;;;;4.50;100.00;100380.44;6307824;20;2872268;-46
2024/02/19 09:11:34;;;;;;;;;82.33;64.33;;;;;5.17;100.00;100386.63;6303560;20;3639918;-46
2024/02/19 09:14:04;;;;;;;;;82.67;63.00;;;;;5.49;100.00;100390.16;6303972;20;3623242;-45
2024/02/19 09:16:34;;;;;;;;;84.00;63.00;;;;;5.10;100.00;100392.16;6303379;20;3644022;-47
2024/02/19 09:19:06;;;;;;;;;82.00;62.00;;;;;5.38;100.00;100387.78;6308787;20;3646093;-44
2024/02/19 09:21:37;;;;;;;;;82.00;62.67;;;;;5.38;100.00;100382.47;6309625;20;2882839;-45
2024/02/19 09:24:06;;;;;;;;;78.33;61.00;;;;;5.42;100.00;100383.25;6308739;20;2873341;-44
2024/02/19 09:26:36;;;;;;;;;75.33;57.00;;;;;4.52;100.00;100378.63;6312448;20;3645212;-45
2024/02/19 09:29:06;;;;;;;;;76.33;57.67;;;;;5.17;100.00;100385.75;6311619;20;3636843;-46
2024/02/19 09:31:36;;;;;;;;;69.67;55.00;;;;;5.69;100.00;100381.56;6310460;20;2880507;-46
2024/02/19 09:34:06;;;;;;;;;82.67;62.67;;;;;5.66;100.00;100392.28;6311558;20;3645248;-46
2024/02/19 09:36:36;;;;;;;;;81.67;61.33;;;;;5.18;100.00;100390.16;6278654;20;3646126;-45
2024/02/19 09:39:06;;;;;;;;;81.00;62.00;;;;;5.30;100.00;100381.81;6312559;20;3633655;-45
2024/02/19 09:41:35;;;;;;;;;89.33;64.00;;;;;5.71;100.00;100391.25;6308902;20;3639595;-47
2024/02/19 09:44:06;;;;;;;;;82.67;63.33;;;;;5.69;100.00;100392.22;6309159;20;3639970;-44
2024/02/19 09:46:36;;;;;;;;;81.67;61.00;;;;;5.64;100.00;100399.47;6309206;20;3639974;-45
2024/02/19 09:49:11;;;;;;;;;85.33;67.00;;;;;5.57;100.00;100390.78;6310082;20;3650304;-44
2024/02/19 09:51:54;;;;;;;;;86.67;66.67;;;;;5.65;100.00;100390.56;6275051;20;3658605;-46
2024/02/19 09:54:25;;;;;;;;;88.00;68.67;;;;;6.10;100.00;100392.75;6309036;20;3652348;-45
2024/02/19 09:56:56;;;;;;;;;82.00;62.67;;;;;6.00;100.00;100391.28;6309558;20;3639860;-46
2024/02/19 09:59:28;;;;;;;;;87.33;71.67;;;;;5.67;100.00;100384.25;6310695;20;3666953;-44
2024/02/19 10:01:56;;;;;;;;;65.00;44.00;;;;;6.30;100.00;100387.66;6275860;20;2875335;-44
2024/02/19 10:04:27;;;;;;;;;85.67;70.00;;;;;5.92;100.00;100384.41;6279926;20;3661950;-45
2024/02/19 10:07:01;;;;;;;;;88.00;69.25;;;;;6.69;100.00;100386.34;6313172;20;4414861;-44
2024/02/19 10:09:31;;;;;;;;;84.00;62.67;;;;;6.92;100.00;100377.56;6311892;20;3646122;-44
2024/02/19 10:12:02;;;;;;;;;82.67;62.33;;;;;6.76;100.00;100378.09;6313075;20;3638888;-45
2024/02/19 10:14:31;;;;;;;;;82.00;63.33;;;;;6.94;100.00;100376.56;6308255;20;3632572;-44
2024/02/19 10:17:01;;;;;;;;;86.00;66.00;;;;;6.40;100.00;100376.66;6309972;20;3659951;-44
2024/02/19 10:19:31;;;;;;;;;79.33;60.67;;;;;6.50;100.00;100372.78;6275275;20;3635749;-44
2024/02/19 10:22:00;;;;;;;;;84.00;67.00;;;;;6.66;100.00;100363.34;6311554;20;3651281;-43
2024/02/19 10:24:31;;;;;;;;;84.67;64.67;;;;;6.68;100.00;100369.47;6279586;20;3650392;-48
2024/02/19 10:27:00;;;;;;;;;83.67;67.67;;;;;6.66;100.00;100357.09;6311201;20;3660668;-45
2024/02/19 10:29:30;;;;;;;;;84.00;65.67;;;;;6.50;100.00;100348.75;6311572;20;3655531;-44
2024/02/19 10:31:59;;;;;;;;;81.33;61.67;;;;;7.08;100.00;100354.72;6276534;20;3638893;-45
2024/02/19 10:34:29;;;;;;;;;83.00;61.33;;;;;7.35;100.00;100351.97;6310205;20;3649228;-44
2024/02/19 10:36:59;;;;;;;;;73.33;56.67;;;;;7.49;100.00;100338.94;6310184;20;3638822;-44
2024/02/19 10:39:31;;;;;;;;;75.67;58.67;;;;;7.13;100.00;100344.72;6311523;20;3629534;-45
2024/02/19 10:42:01;;;;;;;;;78.33;58.67;;;;;7.58;100.00;100332.38;6310327;20;3655568;-45
2024/02/19 10:44:34;;;;;;;;;70.33;52.67;;;;;7.46;100.00;100329.25;6308561;20;3636723;-49
2024/02/19 10:47:07;;;;;;;;;68.33;50.33;;;;;7.77;100.00;100313.84;6309518;20;3647143;-44
2024/02/19 10:49:36;;;;;;;;;60.33;50.00;;;;;7.78;100.00;100318.22;6307037;20;2854689;-44
2024/02/19 10:52:07;;;;;;;;;59.00;45.67;;;;;7.72;100.00;100315.81;6310973;20;2868148;-48
2024/02/19 10:54:42;;;;;;;;;60.67;50.00;;;;;7.56;100.00;100316.41;6307716;20;3631581;-44
2024/02/19 10:57:18;;;;;;;;;65.00;52.50;;;;;7.99;100.00;100317.38;6310877;20;2870177;-44
2024/02/19 10:59:47;;;;;;;;;63.67;49.67;;;;;7.76;100.00;100312.94;6279201;20;3625330;-44
2024/02/19 11:02:20;;;;;;;;;53.00;41.50;;;;;7.88;99.13;100317.78;6308544;20;2857616;-49
2024/02/19 11:04:51;;;;;;;;;57.00;46.00;;;;;7.87;97.71;100315.16;6277901;20;3613820;-45
2024/02/19 11:07:21;;;;;;;;;56.67;42.33;;;;;7.71;99.37;100304.22;6308842;20;3625266;-46